Time;durP1;ratioP1;P1;durP2;ratioP2;P2;SDS_P1;SDS_P2;PMS_P1;PMS_P2;Temp;Humidity;BMP_temperature;BMP_pressure;BME280_temperature;BME280_humidity;BME280_pressure;Samples;Min_cycle;Max_cycle;Signal;HPM_P1;HPM_P2
2022/03/11 00:02:04;;;;;;;10.67;8.33;;;4.50;99.90;;;;;;5974533;24;20553;-69
2022/03/11 00:04:58;;;;;;;10.83;8.77;;;4.50;99.90;;;;;;5972034;23;20522;-68
2022/03/11 00:07:48;;;;;;;12.10;9.40;;;4.50;99.90;;;;;;5977716;23;20837;-69
2022/03/11 00:10:36;;;;;;;11.70;9.07;;;4.50;99.90;;;;;;5972852;24;20450;-69
2022/03/11 00:13:25;;;;;;;10.83;8.80;;;4.30;99.90;;;;;;5989819;23;20469;-69
2022/03/11 00:16:13;;;;;;;9.50;8.17;;;4.40;99.90;;;;;;6003009;23;20496;-69
2022/03/11 00:19:01;;;;;;;12.57;9.53;;;4.30;99.90;;;;;;6019792;23;20425;-69
2022/03/11 00:21:55;;;;;;;9.87;8.23;;;4.30;99.90;;;;;;6003123;23;20442;-69
2022/03/11 00:24:44;;;;;;;10.63;9.03;;;4.30;99.90;;;;;;5988427;23;20446;-69
2022/03/11 00:27:33;;;;;;;10.03;8.27;;;4.20;99.90;;;;;;5975953;24;20629;-69
2022/03/11 00:30:21;;;;;;;11.70;8.57;;;4.20;99.90;;;;;;5968440;24;20798;-69
2022/03/11 00:33:09;;;;;;;11.20;8.77;;;4.20;99.90;;;;;;5986180;23;20446;-68
2022/03/11 00:35:57;;;;;;;9.47;8.40;;;4.20;99.90;;;;;;5973261;24;21010;-70
2022/03/11 00:38:45;;;;;;;10.80;9.50;;;4.10;99.90;;;;;;5974582;24;20458;-68
2022/03/11 00:41:35;;;;;;;10.93;8.90;;;4.10;99.90;;;;;;5972304;24;20442;-68
2022/03/11 00:44:23;;;;;;;11.20;9.30;;;4.00;99.90;;;;;;5972134;24;20555;-68
2022/03/11 00:47:11;;;;;;;10.10;7.80;;;3.90;99.90;;;;;;5974511;24;20886;-68
2022/03/11 00:50:00;;;;;;;10.20;8.50;;;3.90;99.90;;;;;;5974579;24;20454;-69
2022/03/11 00:52:48;;;;;;;10.83;9.03;;;3.80;99.90;;;;;;5968637;24;21018;-68
2022/03/11 00:55:37;;;;;;;11.73;8.67;;;3.80;99.90;;;;;;5997366;23;20509;-69
2022/03/11 00:58:26;;;;;;;9.37;7.97;;;3.70;99.90;;;;;;6004215;23;20501;-68
2022/03/11 01:01:14;;;;;;;9.77;8.20;;;3.70;99.90;;;;;;6001626;23;20484;-69
2022/03/11 01:04:03;;;;;;;10.53;8.77;;;3.70;99.90;;;;;;6000617;23;20445;-69
2022/03/11 01:06:52;;;;;;;11.03;8.60;;;3.60;99.90;;;;;;6005428;23;20533;-69
2022/03/11 01:09:40;;;;;;;10.30;8.50;;;3.60;99.90;;;;;;6003904;23;20465;-69
2022/03/11 01:12:28;;;;;;;10.17;8.07;;;3.60;99.90;;;;;;5993966;23;20509;-68
2022/03/11 01:15:17;;;;;;;9.17;7.60;;;3.60;99.90;;;;;;5980725;23;20936;-69
2022/03/11 01:18:05;;;;;;;10.27;8.10;;;3.50;99.90;;;;;;5974201;24;20766;-69
2022/03/11 01:20:55;;;;;;;10.57;8.10;;;3.40;99.90;;;;;;5972504;24;20446;-68
2022/03/11 01:23:44;;;;;;;10.00;7.67;;;3.40;99.90;;;;;;5972153;24;20434;-68
2022/03/11 01:26:32;;;;;;;10.33;8.33;;;3.40;99.90;;;;;;5976229;24;20517;-69
2022/03/11 01:29:20;;;;;;;9.13;7.40;;;3.40;99.90;;;;;;5968230;24;20418;-68
2022/03/11 01:32:10;;;;;;;10.93;8.60;;;3.40;99.90;;;;;;5973117;24;20467;-69
2022/03/11 01:34:58;;;;;;;8.30;7.23;;;3.30;99.90;;;;;;5990409;23;21229;-69
2022/03/11 01:37:46;;;;;;;9.77;8.13;;;3.30;99.90;;;;;;5993793;23;20532;-69
2022/03/11 01:40:34;;;;;;;9.40;7.83;;;3.30;99.90;;;;;;6000710;23;20517;-68
2022/03/11 01:43:22;;;;;;;10.70;7.90;;;3.20;99.90;;;;;;6001393;23;21085;-68
2022/03/11 01:46:10;;;;;;;11.33;7.23;;;3.20;99.90;;;;;;6000987;23;20604;-68
2022/03/11 01:49:02;;;;;;;13.60;8.17;;;3.20;99.90;;;;;;6000971;23;20414;-69
2022/03/11 01:51:50;;;;;;;10.63;7.50;;;3.10;99.90;;;;;;6002484;23;20989;-69
2022/03/11 01:54:41;;;;;;;11.33;8.20;;;3.10;99.90;;;;;;5991461;23;20565;-69
2022/03/11 01:57:32;;;;;;;9.47;8.00;;;3.10;99.90;;;;;;5987175;23;20419;-69
2022/03/11 02:00:20;;;;;;;9.17;7.33;;;3.00;99.90;;;;;;5995885;24;20455;-68
2022/03/11 02:03:08;;;;;;;9.87;7.80;;;3.00;99.90;;;;;;5991190;24;20632;-68
2022/03/11 02:06:01;;;;;;;10.77;7.57;;;3.00;99.90;;;;;;6005151;23;20445;-69
2022/03/11 02:08:49;;;;;;;9.43;8.10;;;2.90;99.90;;;;;;6002337;23;20509;-68
2022/03/11 02:11:37;;;;;;;9.53;8.00;;;2.90;99.90;;;;;;6003213;23;20422;-69
2022/03/11 02:14:25;;;;;;;7.77;6.73;;;2.90;99.90;;;;;;6003097;23;20513;-69
2022/03/11 02:17:13;;;;;;;12.50;7.73;;;2.80;99.90;;;;;;5999315;23;20492;-68
2022/03/11 02:20:02;;;;;;;9.70;7.60;;;2.80;99.90;;;;;;6002088;23;20506;-68
2022/03/11 02:22:53;;;;;;;10.53;7.57;;;2.80;99.90;;;;;;6001753;23;20513;-70
2022/03/11 02:25:42;;;;;;;9.20;7.50;;;2.80;99.90;;;;;;5975692;23;20561;-68
2022/03/11 02:28:34;;;;;;;9.67;7.60;;;2.80;99.90;;;;;;5974294;24;20510;-68
2022/03/11 02:31:26;;;;;;;10.90;8.00;;;2.70;99.90;;;;;;5974384;24;20995;-68
2022/03/11 02:34:16;;;;;;;8.83;7.53;;;2.70;99.90;;;;;;5973221;24;20510;-69
2022/03/11 02:37:05;;;;;;;10.10;7.10;;;2.70;99.90;;;;;;5974114;24;20809;-68
2022/03/11 02:39:55;;;;;;;9.80;7.70;;;2.70;99.90;;;;;;5974694;24;20904;-69
2022/03/11 02:42:44;;;;;;;11.00;8.20;;;2.70;99.90;;;;;;5975289;24;20499;-69
2022/03/11 02:45:32;;;;;;;9.53;8.53;;;2.60;99.90;;;;;;5996518;23;20449;-68
2022/03/11 02:48:21;;;;;;;9.40;7.30;;;2.60;99.90;;;;;;5995665;23;20976;-69
2022/03/11 02:51:09;;;;;;;9.90;7.23;;;2.60;99.90;;;;;;6001894;23;20550;-68
2022/03/11 02:53:57;;;;;;;10.53;7.83;;;2.50;99.90;;;;;;5999944;23;20481;-68
2022/03/11 02:56:45;;;;;;;10.20;8.13;;;2.50;99.90;;;;;;6002424;23;20418;-68
2022/03/11 02:59:35;;;;;;;10.00;7.87;;;2.50;99.90;;;;;;6001181;23;20456;-68
2022/03/11 03:02:23;;;;;;;12.60;7.80;;;2.50;99.90;;;;;;6000543;23;20521;-68
2022/03/11 03:05:13;;;;;;;8.60;6.97;;;2.40;99.90;;;;;;5981441;23;20446;-68
2022/03/11 03:08:01;;;;;;;8.67;7.30;;;2.40;99.90;;;;;;5968864;24;20779;-68
2022/03/11 03:10:50;;;;;;;10.43;8.17;;;2.40;99.90;;;;;;5975568;24;20499;-68
2022/03/11 03:13:38;;;;;;;9.60;7.87;;;2.40;99.90;;;;;;5974040;24;20550;-67
2022/03/11 03:16:28;;;;;;;9.40;7.90;;;2.40;99.90;;;;;;5973030;24;20462;-68
2022/03/11 03:19:16;;;;;;;10.23;8.03;;;2.30;99.90;;;;;;5980828;24;20426;-68
2022/03/11 03:22:05;;;;;;;9.20;7.70;;;2.30;99.90;;;;;;5973636;24;20438;-68
2022/03/11 03:24:53;;;;;;;10.60;8.17;;;2.30;99.90;;;;;;5972567;24;20542;-68
2022/03/11 03:27:41;;;;;;;10.73;8.13;;;2.30;99.90;;;;;;5969782;24;20487;-68
2022/03/11 03:30:29;;;;;;;11.70;8.10;;;2.30;99.90;;;;;;5971763;24;20478;-68
2022/03/11 03:33:25;;;;;;;11.17;8.67;;;2.20;99.90;;;;;;5974203;24;20486;-67
2022/03/11 03:36:13;;;;;;;9.77;8.37;;;2.20;99.90;;;;;;5973137;24;20888;-68
2022/03/11 03:39:02;;;;;;;12.00;8.53;;;2.10;99.90;;;;;;5972013;24;20867;-70
2022/03/11 03:41:50;;;;;;;9.63;7.97;;;2.10;99.90;;;;;;5974059;24;20578;-68
2022/03/11 03:44:38;;;;;;;9.87;8.33;;;2.10;99.90;;;;;;5987415;23;20818;-68
2022/03/11 03:47:26;;;;;;;11.87;8.80;;;2.10;99.90;;;;;;6008092;23;20884;-69
2022/03/11 03:50:20;;;;;;;10.57;8.33;;;2.10;99.90;;;;;;6003747;23;20472;-67
2022/03/11 03:53:08;;;;;;;11.73;8.73;;;2.00;99.90;;;;;;6006067;23;20468;-68
2022/03/11 03:55:56;;;;;;;14.83;9.77;;;2.00;99.90;;;;;;5976095;24;20445;-69
2022/03/11 03:58:45;;;;;;;11.10;9.40;;;1.90;99.90;;;;;;5980460;23;20566;-68
2022/03/11 04:01:34;;;;;;;12.07;8.87;;;1.90;99.90;;;;;;5979776;23;20421;-68
2022/03/11 04:04:23;;;;;;;11.30;8.10;;;1.80;99.90;;;;;;5982712;23;20504;-69
2022/03/11 04:07:13;;;;;;;12.70;8.80;;;1.80;99.90;;;;;;6004609;23;20492;-68
2022/03/11 04:10:01;;;;;;;12.30;9.20;;;1.70;99.90;;;;;;6009254;23;20441;-68
2022/03/11 04:12:51;;;;;;;13.13;9.70;;;1.80;99.90;;;;;;6000631;23;20505;-68
2022/03/11 04:15:39;;;;;;;11.80;9.30;;;1.80;99.90;;;;;;6008546;23;20453;-67
2022/03/11 04:18:28;;;;;;;10.57;9.00;;;1.80;99.90;;;;;;6005476;23;20414;-68
2022/03/11 04:21:18;;;;;;;10.97;9.03;;;1.70;99.90;;;;;;6004668;23;20508;-67
2022/03/11 04:24:13;;;;;;;12.33;9.03;;;1.70;99.90;;;;;;6004262;23;20929;-68
2022/03/11 04:27:02;;;;;;;9.53;7.83;;;1.70;99.90;;;;;;6012574;23;20790;-68
2022/03/11 04:29:53;;;;;;;12.50;9.00;;;1.60;99.90;;;;;;6007294;23;20904;-68
2022/03/11 04:32:43;;;;;;;12.13;8.80;;;1.60;99.90;;;;;;6010056;23;20450;-68
2022/03/11 04:35:31;;;;;;;12.53;8.90;;;1.60;99.90;;;;;;6027472;23;20442;-67
2022/03/11 04:38:21;;;;;;;11.37;8.23;;;1.50;99.90;;;;;;6029498;23;20456;-67
2022/03/11 04:41:11;;;;;;;10.50;9.10;;;1.50;99.90;;;;;;6011720;23;20449;-67
2022/03/11 04:44:02;;;;;;;15.80;10.03;;;1.50;99.90;;;;;;6026854;23;20501;-68
2022/03/11 04:46:50;;;;;;;12.13;9.00;;;1.50;99.90;;;;;;6030403;23;20418;-68
2022/03/11 04:49:39;;;;;;;13.13;9.53;;;1.40;99.90;;;;;;6021528;23;20433;-68
2022/03/11 04:52:28;;;;;;;12.63;8.97;;;1.40;99.90;;;;;;6028129;23;20453;-68
2022/03/11 04:55:20;;;;;;;13.30;8.80;;;1.40;99.90;;;;;;6025489;23;20844;-67
2022/03/11 04:58:11;;;;;;;12.23;9.13;;;1.30;99.90;;;;;;5985655;23;20921;-69
2022/03/11 05:01:04;;;;;;;13.20;10.10;;;1.40;99.90;;;;;;5986207;23;20796;-69
2022/03/11 05:03:53;;;;;;;11.77;9.10;;;1.30;99.90;;;;;;6006480;23;20452;-68
2022/03/11 05:06:49;;;;;;;13.53;8.97;;;1.40;99.90;;;;;;6008064;23;20421;-68
2022/03/11 05:09:38;;;;;;;13.30;8.87;;;1.30;99.90;;;;;;6006559;23;20533;-68
2022/03/11 05:12:29;;;;;;;11.70;8.53;;;1.30;99.90;;;;;;5985547;23;20457;-68
2022/03/11 05:15:19;;;;;;;11.90;8.97;;;1.30;99.90;;;;;;5980582;23;20528;-68
2022/03/11 05:18:11;;;;;;;10.90;9.13;;;1.30;99.90;;;;;;6003854;23;20422;-68
2022/03/11 05:21:00;;;;;;;15.10;9.37;;;1.30;99.90;;;;;;6005494;23;20975;-68
2022/03/11 05:23:52;;;;;;;13.40;9.07;;;1.20;99.90;;;;;;6002851;23;20526;-68
2022/03/11 05:26:42;;;;;;;11.50;9.17;;;1.20;99.90;;;;;;6004362;23;20413;-68
2022/03/11 05:29:30;;;;;;;14.20;10.10;;;1.20;99.90;;;;;;6005372;23;20457;-69
2022/03/11 05:32:24;;;;;;;13.97;8.80;;;1.10;99.90;;;;;;6002675;23;20433;-68
2022/03/11 05:35:14;;;;;;;14.30;10.03;;;1.00;99.90;;;;;;6006782;23;20446;-68
2022/03/11 05:38:16;;;;;;;12.07;8.43;;;1.00;99.90;;;;;;5990492;23;20432;-68
2022/03/11 05:41:04;;;;;;;11.27;8.40;;;1.00;99.90;;;;;;5993656;23;20425;-68
2022/03/11 05:43:53;;;;;;;12.40;9.47;;;1.10;99.90;;;;;;6004522;23;20513;-68
2022/03/11 05:46:44;;;;;;;14.20;9.33;;;1.00;99.90;;;;;;6005901;23;20505;-68
2022/03/11 05:49:36;;;;;;;10.93;8.63;;;1.00;99.90;;;;;;5984435;23;20449;-68
2022/03/11 05:52:26;;;;;;;12.13;8.43;;;1.00;99.90;;;;;;6002518;23;20438;-68
2022/03/11 05:55:14;;;;;;;10.90;8.43;;;1.10;99.90;;;;;;5988357;23;20770;-68
2022/03/11 05:58:10;;;;;;;13.70;9.33;;;1.00;99.90;;;;;;6004480;23;20445;-68
2022/03/11 06:00:58;;;;;;;13.10;10.03;;;0.90;99.90;;;;;;5999065;23;20505;-68
2022/03/11 06:03:47;;;;;;;13.30;9.23;;;0.90;99.90;;;;;;6002350;23;20453;-67
2022/03/11 06:06:38;;;;;;;12.13;9.90;;;0.90;99.90;;;;;;6002114;23;20507;-68
2022/03/11 06:09:26;;;;;;;12.33;9.53;;;0.90;99.90;;;;;;5999927;23;20468;-68
2022/03/11 06:12:16;;;;;;;12.10;8.80;;;1.00;99.90;;;;;;6001296;23;20844;-68
2022/03/11 06:15:08;;;;;;;11.13;9.20;;;0.90;99.90;;;;;;6004363;23;20464;-68
2022/03/11 06:17:57;;;;;;;12.57;9.20;;;0.90;99.90;;;;;;5996434;23;20418;-68
2022/03/11 06:20:45;;;;;;;10.90;8.90;;;0.90;99.90;;;;;;5987305;23;20433;-68
2022/03/11 06:23:36;;;;;;;14.40;8.83;;;0.80;99.90;;;;;;6001868;23;20437;-68
2022/03/11 06:26:24;;;;;;;10.73;8.60;;;0.90;99.90;;;;;;5990768;23;20459;-67
2022/03/11 06:29:12;;;;;;;11.33;8.17;;;0.80;99.90;;;;;;6001744;23;20954;-68
2022/03/11 06:32:01;;;;;;;13.43;9.83;;;0.90;99.90;;;;;;5995013;23;20445;-68
2022/03/11 06:34:49;;;;;;;14.80;10.37;;;0.80;99.90;;;;;;5999586;23;20474;-68
2022/03/11 06:37:38;;;;;;;10.80;9.27;;;0.90;99.90;;;;;;5991997;23;20497;-69
2022/03/11 06:40:27;;;;;;;15.30;9.60;;;0.90;99.90;;;;;;6000303;23;20422;-68
2022/03/11 06:43:16;;;;;;;11.37;8.47;;;0.90;99.90;;;;;;5998917;23;20922;-68
2022/03/11 06:46:06;;;;;;;11.37;8.73;;;0.90;99.90;;;;;;6001314;23;20458;-68
2022/03/11 06:48:54;;;;;;;13.23;9.43;;;0.90;99.90;;;;;;5988876;23;20417;-68
2022/03/11 06:51:42;;;;;;;13.67;9.93;;;1.00;99.90;;;;;;5999664;23;20558;-68
2022/03/11 06:54:31;;;;;;;13.10;8.43;;;0.90;99.90;;;;;;5999364;23;20445;-68
2022/03/11 06:57:20;;;;;;;12.13;8.90;;;1.00;99.90;;;;;;5998833;23;20897;-67
2022/03/11 07:00:10;;;;;;;11.60;8.70;;;1.00;99.90;;;;;;5991967;23;20424;-67
2022/03/11 07:02:58;;;;;;;11.23;8.70;;;0.90;99.90;;;;;;6001579;23;20502;-67
2022/03/11 07:05:47;;;;;;;11.30;9.10;;;0.90;99.90;;;;;;6000588;23;20544;-68
2022/03/11 07:08:35;;;;;;;11.23;8.90;;;0.90;99.90;;;;;;6002610;23;20505;-68
2022/03/11 07:11:23;;;;;;;12.33;9.40;;;1.00;99.90;;;;;;6024962;23;20417;-68
2022/03/11 07:14:13;;;;;;;11.40;9.27;;;1.00;99.90;;;;;;6012744;23;20520;-68
2022/03/11 07:17:01;;;;;;;13.43;8.63;;;1.00;99.90;;;;;;6003996;23;20521;-68
2022/03/11 07:19:49;;;;;;;13.53;9.00;;;1.10;99.90;;;;;;6003508;23;20778;-68
2022/03/11 07:22:37;;;;;;;10.50;7.73;;;1.10;99.90;;;;;;6002075;23;20445;-68
2022/03/11 07:25:25;;;;;;;10.20;8.53;;;1.10;99.90;;;;;;6002032;23;20879;-68
2022/03/11 07:28:14;;;;;;;12.73;8.73;;;1.20;99.90;;;;;;5982580;23;20512;-68
2022/03/11 07:31:04;;;;;;;13.53;8.80;;;1.20;99.90;;;;;;6002028;23;20899;-68
2022/03/11 07:33:52;;;;;;;13.33;8.97;;;1.20;99.90;;;;;;6012939;23;20668;-69
2022/03/11 07:36:42;;;;;;;11.20;8.30;;;1.20;99.90;;;;;;6021629;23;20417;-68
2022/03/11 07:39:30;;;;;;;14.13;9.30;;;1.30;99.90;;;;;;6014703;23;20429;-69
2022/03/11 07:42:19;;;;;;;11.07;8.13;;;1.30;99.90;;;;;;6010449;23;20534;-68
2022/03/11 07:45:08;;;;;;;11.43;8.57;;;1.50;99.90;;;;;;6004289;23;20530;-68
2022/03/11 07:47:58;;;;;;;11.40;8.70;;;1.70;99.90;;;;;;6006765;23;20446;-68
2022/03/11 07:50:47;;;;;;;10.53;7.90;;;1.80;99.90;;;;;;6006064;23;20426;-68
2022/03/11 07:53:35;;;;;;;11.60;9.03;;;1.80;99.90;;;;;;6001761;23;21079;-68
2022/03/11 07:56:24;;;;;;;10.80;8.37;;;1.80;99.90;;;;;;6002381;23;20925;-67
2022/03/11 07:59:12;;;;;;;10.83;8.93;;;1.70;99.90;;;;;;6003737;23;20409;-68
2022/03/11 08:02:00;;;;;;;15.30;8.97;;;1.80;99.90;;;;;;5993197;23;20533;-68
2022/03/11 08:04:50;;;;;;;13.50;9.73;;;1.80;99.90;;;;;;6002369;23;20464;-68
2022/03/11 08:07:38;;;;;;;10.33;8.10;;;1.80;99.90;;;;;;6002780;23;20417;-68
2022/03/11 08:10:27;;;;;;;12.57;8.50;;;1.90;99.90;;;;;;5984516;23;20813;-68
2022/03/11 08:13:15;;;;;;;10.17;7.73;;;2.00;99.90;;;;;;6000460;23;20850;-68
2022/03/11 08:16:04;;;;;;;11.40;8.10;;;2.00;99.90;;;;;;5997784;23;20483;-67
2022/03/11 08:18:53;;;;;;;11.70;8.67;;;2.10;99.90;;;;;;6002215;23;20454;-68
2022/03/11 08:21:43;;;;;;;13.10;8.23;;;2.10;99.90;;;;;;5982515;23;20462;-68
2022/03/11 08:24:31;;;;;;;10.83;8.73;;;2.20;99.90;;;;;;5999670;23;20585;-68
2022/03/11 08:27:21;;;;;;;12.63;8.70;;;2.20;99.90;;;;;;6012155;23;20824;-68
2022/03/11 08:30:11;;;;;;;9.90;8.07;;;2.20;99.90;;;;;;6010224;23;20425;-68
2022/03/11 08:32:59;;;;;;;10.43;7.80;;;2.30;99.90;;;;;;5984804;23;20441;-68
2022/03/11 08:36:08;;;;;;;11.67;7.77;;;2.40;99.90;;;;;;6001275;23;20954;-68
2022/03/11 08:39:00;;;;;;;10.70;8.03;;;2.50;99.90;;;;;;5999006;23;20421;-69
2022/03/11 08:41:48;;;;;;;12.60;8.33;;;2.60;99.90;;;;;;5998490;23;20418;-69
2022/03/11 08:44:36;;;;;;;9.53;7.57;;;2.70;99.90;;;;;;6002007;23;20528;-69
2022/03/11 08:47:24;;;;;;;10.53;8.40;;;2.80;99.90;;;;;;6001239;23;20503;-68
2022/03/11 08:50:13;;;;;;;11.90;8.57;;;2.90;99.90;;;;;;5998855;23;21233;-69
2022/03/11 08:53:01;;;;;;;9.40;8.00;;;2.90;99.90;;;;;;6003222;23;20434;-69
2022/03/11 08:55:51;;;;;;;11.73;8.50;;;3.00;99.90;;;;;;6001167;23;20453;-69
2022/03/11 08:58:39;;;;;;;9.60;8.03;;;3.10;99.90;;;;;;5999210;23;20471;-69
2022/03/11 09:01:27;;;;;;;11.73;8.37;;;3.10;99.90;;;;;;6001343;23;20429;-69
2022/03/11 09:04:16;;;;;;;12.40;9.00;;;3.20;99.90;;;;;;5999804;23;20453;-68
2022/03/11 09:07:04;;;;;;;10.20;7.67;;;3.20;99.90;;;;;;5998313;23;20613;-68
2022/03/11 09:09:53;;;;;;;10.40;9.30;;;3.30;99.90;;;;;;6001496;23;20422;-68
2022/03/11 09:12:42;;;;;;;9.60;7.90;;;3.40;99.90;;;;;;5996101;23;20453;-68
2022/03/11 09:15:31;;;;;;;21.00;8.50;;;3.40;99.90;;;;;;6001903;23;20497;-68
2022/03/11 09:18:19;;;;;;;9.73;8.27;;;3.60;99.90;;;;;;6001326;23;20414;-68
2022/03/11 09:21:07;;;;;;;10.33;8.17;;;3.50;99.90;;;;;;6002208;23;20513;-69
2022/03/11 09:23:55;;;;;;;14.10;8.70;;;3.50;99.90;;;;;;6000628;23;20449;-67
2022/03/11 09:26:45;;;;;;;11.10;8.10;;;3.60;99.90;;;;;;6000532;23;20509;-68
2022/03/11 09:29:42;;;;;;;10.60;9.13;;;3.70;99.90;;;;;;5999133;23;20443;-69
2022/03/11 09:32:30;;;;;;;11.67;8.40;;;3.90;99.90;;;;;;6000448;23;20442;-72
2022/03/11 09:35:18;;;;;;;11.20;8.13;;;4.00;99.90;;;;;;6002060;23;20751;-68
2022/03/11 09:38:07;;;;;;;12.00;8.40;;;4.00;99.90;;;;;;5998603;23;20509;-69
2022/03/11 09:40:56;;;;;;;9.57;6.93;;;4.10;99.90;;;;;;6000022;23;20500;-68
2022/03/11 09:43:45;;;;;;;12.10;8.80;;;4.20;99.90;;;;;;5998930;23;20587;-67
2022/03/11 09:46:35;;;;;;;10.70;7.50;;;4.30;99.90;;;;;;5999190;23;20446;-67
2022/03/11 09:49:23;;;;;;;11.60;8.53;;;4.40;99.90;;;;;;6004186;23;20425;-67
2022/03/11 09:52:13;;;;;;;11.50;8.77;;;4.50;99.90;;;;;;6020062;23;20460;-67
2022/03/11 09:55:01;;;;;;;10.23;7.57;;;4.50;99.90;;;;;;6006903;23;20522;-67
2022/03/11 09:57:49;;;;;;;11.17;7.90;;;4.60;99.90;;;;;;6000873;23;20928;-67
2022/03/11 10:00:38;;;;;;;9.97;8.17;;;4.70;99.70;;;;;;5997542;23;20421;-67
2022/03/11 10:03:29;;;;;;;10.13;7.17;;;4.80;98.80;;;;;;5993664;23;20711;-67
2022/03/11 10:06:38;;;;;;;10.47;7.57;;;4.90;99.20;;;;;;5995393;23;20617;-66
2022/03/11 10:09:31;;;;;;;10.00;7.57;;;5.00;98.70;;;;;;5996837;23;21056;-67
2022/03/11 10:12:24;;;;;;;10.40;7.93;;;5.10;98.00;;;;;;5997437;23;20442;-67
2022/03/11 10:15:17;;;;;;;9.93;8.00;;;5.20;99.90;;;;;;5995829;23;20832;-67
2022/03/11 10:18:08;;;;;;;10.03;7.30;;;5.40;99.70;;;;;;5995595;23;20869;-67
2022/03/11 10:21:08;;;;;;;9.43;7.20;;;5.50;99.90;;;;;;5995656;23;20426;-67
2022/03/11 10:24:00;;;;;;;8.93;7.70;;;5.50;96.60;;;;;;6003054;23;20453;-67
2022/03/11 10:26:50;;;;;;;10.13;8.20;;;5.70;97.90;;;;;;5990575;23;20540;-67
2022/03/11 10:29:38;;;;;;;8.43;7.30;;;5.80;99.90;;;;;;5996417;23;20510;-67
2022/03/11 10:32:26;;;;;;;9.47;7.93;;;5.90;98.40;;;;;;5993906;23;20569;-67
2022/03/11 10:35:18;;;;;;;8.43;7.53;;;6.00;97.90;;;;;;5991674;23;20536;-67
2022/03/11 10:38:10;;;;;;;12.10;8.93;;;6.10;97.20;;;;;;5997287;23;20421;-68
2022/03/11 10:41:00;;;;;;;10.20;8.80;;;6.20;99.90;;;;;;5997636;23;20544;-68
2022/03/11 10:43:48;;;;;;;12.07;9.20;;;6.20;98.20;;;;;;6005971;23;20557;-67
2022/03/11 10:46:36;;;;;;;8.93;7.30;;;6.30;98.00;;;;;;5990309;23;21200;-67
2022/03/11 10:49:27;;;;;;;9.97;8.17;;;6.40;97.80;;;;;;5998672;23;20414;-67
2022/03/11 10:52:29;;;;;;;12.43;8.67;;;6.50;96.70;;;;;;5996754;23;20735;-68
2022/03/11 10:55:19;;;;;;;10.57;8.00;;;6.60;96.30;;;;;;5992221;23;20457;-68
2022/03/11 10:58:08;;;;;;;10.60;8.03;;;6.70;96.50;;;;;;5995894;23;20909;-68
2022/03/11 11:00:56;;;;;;;10.33;8.43;;;6.80;94.60;;;;;;5994657;23;20597;-67
2022/03/11 11:03:46;;;;;;;9.93;8.60;;;6.90;95.40;;;;;;5994997;23;20452;-67
2022/03/11 11:06:35;;;;;;;8.63;7.73;;;7.10;96.50;;;;;;5993490;23;20974;-67
2022/03/11 11:09:26;;;;;;;12.00;8.63;;;7.10;93.00;;;;;;5997802;23;20422;-68
2022/03/11 11:12:16;;;;;;;9.07;7.60;;;7.30;92.40;;;;;;5996380;23;20476;-67
2022/03/11 11:15:06;;;;;;;8.60;7.70;;;7.40;92.40;;;;;;5995739;23;20512;-68
2022/03/11 11:17:55;;;;;;;13.07;7.93;;;7.50;92.90;;;;;;5999665;23;20418;-68
2022/03/11 11:20:47;;;;;;;7.80;7.10;;;7.60;90.80;;;;;;5990751;23;20547;-67
2022/03/11 11:23:36;;;;;;;9.10;7.50;;;7.70;89.50;;;;;;5997353;23;20444;-67
2022/03/11 11:26:26;;;;;;;9.27;7.40;;;7.70;88.10;;;;;;5998378;23;20537;-67
2022/03/11 11:29:19;;;;;;;8.33;7.53;;;7.90;89.50;;;;;;5996489;23;20465;-67
2022/03/11 11:32:08;;;;;;;9.83;7.67;;;8.00;90.70;;;;;;5998576;23;20449;-68
2022/03/11 11:35:25;;;;;;;11.47;8.33;;;8.20;88.10;;;;;;6000039;23;20452;-68
2022/03/11 11:38:30;;;;;;;9.97;7.33;;;8.40;88.30;;;;;;5998784;23;20554;-69
2022/03/11 11:41:25;;;;;;;8.43;7.20;;;8.60;85.90;;;;;;5988373;23;20512;-67
2022/03/11 11:44:17;;;;;;;11.80;7.60;;;8.80;86.90;;;;;;5996547;23;20499;-68
2022/03/11 11:47:15;;;;;;;9.17;7.80;;;9.00;90.30;;;;;;6002357;23;20456;-68
2022/03/11 11:50:15;;;;;;;9.50;8.50;;;9.20;84.60;;;;;;6013758;23;20592;-67
2022/03/11 11:53:05;;;;;;;9.80;7.20;;;9.30;82.80;;;;;;6013943;23;20449;-67
2022/03/11 11:55:53;;;;;;;12.07;7.60;;;9.40;82.70;;;;;;6002972;23;20548;-67
2022/03/11 11:58:51;;;;;;;10.83;7.93;;;9.60;86.60;;;;;;6000096;23;20421;-67
2022/03/11 12:01:43;;;;;;;9.30;7.40;;;9.60;78.80;;;;;;5998211;23;20964;-67
2022/03/11 12:04:35;;;;;;;13.73;8.63;;;9.90;81.70;;;;;;5996628;23;20543;-67
2022/03/11 12:07:49;;;;;;;9.13;7.23;;;10.00;75.00;;;;;;5981034;23;21310;-66
2022/03/11 12:10:51;;;;;;;7.63;6.93;;;10.10;80.30;;;;;;5997616;23;20816;-67
2022/03/11 12:13:40;;;;;;;9.73;7.73;;;10.30;74.30;;;;;;5998873;23;20445;-68
2022/03/11 12:17:01;;;;;;;9.77;7.17;;;10.50;77.90;;;;;;5997541;23;20413;-67
2022/03/11 12:19:50;;;;;;;8.27;6.90;;;10.70;74.00;;;;;;5988285;23;20422;-66
2022/03/11 12:22:51;;;;;;;8.60;7.53;;;10.90;71.80;;;;;;5996881;23;20520;-67
2022/03/11 12:26:00;;;;;;;;;;;;;;;;;;;;;
2022/03/11 12:29:00;;;;;;;9.67;7.33;;;11.30;73.20;;;;;;5996192;23;20456;-65
2022/03/11 12:31:51;;;;;;;9.03;7.17;;;11.80;74.70;;;;;;6001066;23;20465;-67
2022/03/11 12:34:56;;;;;;;10.10;7.17;;;12.60;75.10;;;;;;6014838;23;20525;-66
2022/03/11 12:37:45;;;;;;;8.40;7.60;;;13.50;69.60;;;;;;6012808;23;20422;-67
2022/03/11 12:40:34;;;;;;;9.10;7.40;;;14.60;70.90;;;;;;5992340;23;21268;-65
2022/03/11 12:43:24;;;;;;;10.10;7.50;;;15.30;62.70;;;;;;5983051;23;20441;-67
2022/03/11 12:46:13;;;;;;;7.47;6.53;;;16.40;59.10;;;;;;5997636;23;20912;-67
2022/03/11 12:49:01;;;;;;;8.27;7.47;;;18.20;57.50;;;;;;5986989;23;20858;-67
2022/03/11 12:51:49;;;;;;;8.27;7.40;;;20.30;49.70;;;;;;5991929;23;20417;-68
2022/03/11 12:54:37;;;;;;;8.60;7.80;;;22.20;47.10;;;;;;5994813;23;20561;-66
2022/03/11 12:57:26;;;;;;;8.40;7.60;;;23.40;45.00;;;;;;5991567;23;20414;-69
2022/03/11 13:00:20;;;;;;;8.90;8.03;;;24.50;42.10;;;;;;5987713;23;20509;-68
2022/03/11 13:03:10;;;;;;;10.97;8.57;;;24.90;37.30;;;;;;5991847;23;20437;-67
2022/03/11 13:06:00;;;;;;;8.10;7.30;;;24.20;36.30;;;;;;5993760;23;20448;-66
2022/03/11 13:08:48;;;;;;;8.50;7.70;;;24.50;36.00;;;;;;5994144;23;20453;-65
2022/03/11 13:11:36;;;;;;;8.17;7.30;;;25.20;35.20;;;;;;5985772;23;20417;-66
2022/03/11 13:14:24;;;;;;;7.20;6.60;;;25.10;35.10;;;;;;5986253;23;20832;-66
2022/03/11 13:17:14;;;;;;;7.77;7.07;;;25.40;34.40;;;;;;5994287;23;20536;-65
2022/03/11 13:20:02;;;;;;;7.47;6.87;;;24.50;32.40;;;;;;5995129;23;20889;-66
2022/03/11 13:22:50;;;;;;;7.77;7.10;;;23.80;30.50;;;;;;5994358;23;20444;-66
2022/03/11 13:25:41;;;;;;;7.43;6.83;;;23.40;32.80;;;;;;5984074;23;20980;-65
2022/03/11 13:28:30;;;;;;;7.33;6.63;;;23.00;32.70;;;;;;5991824;23;20951;-64
2022/03/11 13:31:20;;;;;;;11.93;6.97;;;22.90;33.20;;;;;;5995923;23;20501;-65
2022/03/11 13:34:11;;;;;;;7.53;6.83;;;22.80;33.00;;;;;;5964518;23;20939;-65
2022/03/11 13:37:11;;;;;;;7.57;6.80;;;23.00;33.20;;;;;;5968828;23;21382;-67
2022/03/11 13:40:07;;;;;;;7.97;7.23;;;23.60;33.30;;;;;;5962512;24;20490;-67
2022/03/11 13:42:57;;;;;;;7.93;7.07;;;23.90;34.00;;;;;;5965815;24;20956;-66
2022/03/11 13:45:52;;;;;;;9.33;7.90;;;23.80;32.00;;;;;;5964500;23;20514;-68
2022/03/11 13:48:40;;;;;;;10.20;7.83;;;22.80;30.10;;;;;;5961781;24;20474;-68
2022/03/11 13:51:50;;;;;;;8.30;7.50;;;21.90;30.10;;;;;;5967068;24;20763;-67
2022/03/11 13:54:40;;;;;;;9.27;7.20;;;21.20;31.40;;;;;;5963453;23;20969;-69
2022/03/11 13:57:33;;;;;;;8.37;7.60;;;21.30;32.10;;;;;;5967415;23;20908;-68
2022/03/11 14:00:24;;;;;;;9.10;8.10;;;20.60;31.80;;;;;;5967393;24;20714;-71
2022/03/11 14:03:15;;;;;;;9.67;8.20;;;19.50;31.20;;;;;;5974904;24;20435;-68
2022/03/11 14:06:03;;;;;;;7.80;7.00;;;18.80;32.20;;;;;;5991739;23;20500;-68
2022/03/11 14:09:13;;;;;;;7.77;6.80;;;18.30;34.00;;;;;;5991316;23;20452;-68
2022/03/11 14:12:01;;;;;;;8.90;8.00;;;18.20;34.00;;;;;;5995560;23;20566;-71
2022/03/11 14:14:49;;;;;;;9.13;7.90;;;18.00;33.70;;;;;;5991099;23;20460;-71
2022/03/11 14:17:39;;;;;;;10.10;7.27;;;17.70;33.30;;;;;;5994815;23;20934;-70
2022/03/11 14:20:29;;;;;;;8.87;8.07;;;16.70;32.20;;;;;;5998168;23;20449;-70
2022/03/11 14:23:17;;;;;;;8.83;8.03;;;16.00;35.30;;;;;;5998479;23;20673;-69
2022/03/11 14:26:07;;;;;;;10.23;7.50;;;15.50;34.40;;;;;;6001518;23;20505;-69
2022/03/11 14:28:55;;;;;;;8.07;7.37;;;15.20;35.10;;;;;;6002840;23;20960;-69
2022/03/11 14:31:43;;;;;;;8.60;7.40;;;14.90;35.00;;;;;;5998777;23;20418;-69
2022/03/11 14:34:32;;;;;;;9.40;7.30;;;14.10;36.10;;;;;;6000906;23;20449;-69
2022/03/11 14:37:20;;;;;;;9.17;7.37;;;13.80;36.90;;;;;;5999148;23;20477;-69
2022/03/11 14:40:10;;;;;;;8.70;7.67;;;13.40;36.50;;;;;;5976242;23;20449;-69
2022/03/11 14:43:00;;;;;;;8.00;7.20;;;12.80;37.20;;;;;;5998524;23;20483;-69
2022/03/11 14:45:48;;;;;;;8.20;7.40;;;12.60;36.70;;;;;;5967100;23;20909;-71
2022/03/11 14:48:53;;;;;;;12.43;7.80;;;12.60;38.60;;;;;;5969081;24;20442;-69
2022/03/11 14:51:42;;;;;;;10.10;6.97;;;12.50;37.70;;;;;;5970511;24;20459;-69